sensor_id;sensor_type;location;lat;lon;timestamp;P1;durP1;ratioP1;P2;durP2;ratioP2
12218;SDS011;6172;42.646;23.344;2024-01-27T00:01:55;5.60;;;1.50;;
12218;SDS011;6172;42.646;23.344;2024-01-27T00:04:24;2.17;;;0.60;;
12218;SDS011;6172;42.646;23.344;2024-01-27T00:06:52;3.30;;;0.90;;
12218;SDS011;6172;42.646;23.344;2024-01-27T00:09:23;3.57;;;0.80;;
12218;SDS011;6172;42.646;23.344;2024-01-27T00:11:51;4.90;;;1.20;;
12218;SDS011;6172;42.646;23.344;2024-01-27T00:14:18;5.63;;;0.97;;
12218;SDS011;6172;42.646;23.344;2024-01-27T00:16:48;4.20;;;0.63;;
12218;SDS011;6172;42.646;23.344;2024-01-27T00:19:16;4.73;;;1.27;;
12218;SDS011;6172;42.646;23.344;2024-01-27T00:21:45;2.17;;;1.00;;
12218;SDS011;6172;42.646;23.344;2024-01-27T00:24:13;3.77;;;1.10;;
12218;SDS011;6172;42.646;23.344;2024-01-27T00:26:42;2.77;;;0.73;;
12218;SDS011;6172;42.646;23.344;2024-01-27T00:29:11;3.13;;;1.00;;
12218;SDS011;6172;42.646;23.344;2024-01-27T00:31:38;4.10;;;0.80;;
12218;SDS011;6172;42.646;23.344;2024-01-27T00:34:06;5.30;;;1.07;;
12218;SDS011;6172;42.646;23.344;2024-01-27T00:36:34;2.50;;;0.90;;
12218;SDS011;6172;42.646;23.344;2024-01-27T00:39:02;5.50;;;1.13;;
12218;SDS011;6172;42.646;23.344;2024-01-27T00:41:34;4.77;;;1.13;;
12218;SDS011;6172;42.646;23.344;2024-01-27T00:44:03;2.43;;;1.27;;
12218;SDS011;6172;42.646;23.344;2024-01-27T00:46:30;2.40;;;0.67;;
12218;SDS011;6172;42.646;23.344;2024-01-27T00:48:58;4.43;;;0.80;;
12218;SDS011;6172;42.646;23.344;2024-01-27T00:51:25;2.50;;;0.80;;
12218;SDS011;6172;42.646;23.344;2024-01-27T00:53:54;3.37;;;1.00;;
12218;SDS011;6172;42.646;23.344;2024-01-27T00:56:22;2.97;;;0.90;;
12218;SDS011;6172;42.646;23.344;2024-01-27T00:58:49;2.73;;;0.60;;
12218;SDS011;6172;42.646;23.344;2024-01-27T01:01:19;6.63;;;1.20;;
12218;SDS011;6172;42.646;23.344;2024-01-27T01:03:48;2.90;;;0.83;;
12218;SDS011;6172;42.646;23.344;2024-01-27T01:06:18;6.03;;;0.90;;
12218;SDS011;6172;42.646;23.344;2024-01-27T01:08:47;5.30;;;1.03;;
12218;SDS011;6172;42.646;23.344;2024-01-27T01:11:15;3.43;;;1.07;;
12218;SDS011;6172;42.646;23.344;2024-01-27T01:13:42;4.70;;;0.87;;
12218;SDS011;6172;42.646;23.344;2024-01-27T01:16:10;3.40;;;1.10;;
12218;SDS011;6172;42.646;23.344;2024-01-27T01:18:38;2.23;;;0.80;;
12218;SDS011;6172;42.646;23.344;2024-01-27T01:21:06;3.20;;;0.93;;
12218;SDS011;6172;42.646;23.344;2024-01-27T01:23:33;3.47;;;0.80;;
12218;SDS011;6172;42.646;23.344;2024-01-27T01:26:00;1.60;;;0.73;;
12218;SDS011;6172;42.646;23.344;2024-01-27T01:28:28;4.63;;;0.80;;
12218;SDS011;6172;42.646;23.344;2024-01-27T01:30:57;5.17;;;1.30;;
12218;SDS011;6172;42.646;23.344;2024-01-27T01:33:23;2.83;;;0.70;;
12218;SDS011;6172;42.646;23.344;2024-01-27T01:35:52;4.00;;;1.27;;
12218;SDS011;6172;42.646;23.344;2024-01-27T01:38:19;2.53;;;1.20;;
12218;SDS011;6172;42.646;23.344;2024-01-27T01:40:46;5.67;;;1.40;;
12218;SDS011;6172;42.646;23.344;2024-01-27T01:43:14;2.37;;;1.10;;
12218;SDS011;6172;42.646;23.344;2024-01-27T01:45:41;4.57;;;1.07;;
12218;SDS011;6172;42.646;23.344;2024-01-27T01:48:08;4.80;;;0.90;;
12218;SDS011;6172;42.646;23.344;2024-01-27T01:50:35;4.03;;;1.20;;
12218;SDS011;6172;42.646;23.344;2024-01-27T01:53:04;3.80;;;1.30;;
12218;SDS011;6172;42.646;23.344;2024-01-27T01:55:33;3.97;;;1.20;;
12218;SDS011;6172;42.646;23.344;2024-01-27T01:58:00;2.00;;;0.90;;
12218;SDS011;6172;42.646;23.344;2024-01-27T02:00:27;5.40;;;0.80;;
12218;SDS011;6172;42.646;23.344;2024-01-27T02:02:54;3.17;;;1.27;;
12218;SDS011;6172;42.646;23.344;2024-01-27T02:05:21;5.83;;;1.20;;
12218;SDS011;6172;42.646;23.344;2024-01-27T02:07:49;5.60;;;1.37;;
12218;SDS011;6172;42.646;23.344;2024-01-27T02:10:18;1.97;;;0.93;;
12218;SDS011;6172;42.646;23.344;2024-01-27T02:12:45;3.10;;;1.30;;
12218;SDS011;6172;42.646;23.344;2024-01-27T02:15:13;4.27;;;1.13;;
12218;SDS011;6172;42.646;23.344;2024-01-27T02:17:40;3.27;;;1.00;;
12218;SDS011;6172;42.646;23.344;2024-01-27T02:20:07;5.43;;;1.10;;
12218;SDS011;6172;42.646;23.344;2024-01-27T02:22:35;3.57;;;0.70;;
12218;SDS011;6172;42.646;23.344;2024-01-27T02:25:04;4.27;;;0.63;;
12218;SDS011;6172;42.646;23.344;2024-01-27T02:27:31;3.33;;;0.47;;
12218;SDS011;6172;42.646;23.344;2024-01-27T02:29:59;1.03;;;0.47;;
12218;SDS011;6172;42.646;23.344;2024-01-27T02:32:26;1.83;;;0.60;;
12218;SDS011;6172;42.646;23.344;2024-01-27T02:34:53;1.97;;;0.30;;
12218;SDS011;6172;42.646;23.344;2024-01-27T02:37:20;3.63;;;0.60;;
12218;SDS011;6172;42.646;23.344;2024-01-27T02:39:48;2.87;;;0.40;;
12218;SDS011;6172;42.646;23.344;2024-01-27T02:42:17;2.57;;;0.50;;
12218;SDS011;6172;42.646;23.344;2024-01-27T02:44:44;2.43;;;0.73;;
12218;SDS011;6172;42.646;23.344;2024-01-27T02:47:11;1.87;;;0.40;;
12218;SDS011;6172;42.646;23.344;2024-01-27T02:49:38;5.23;;;0.77;;
12218;SDS011;6172;42.646;23.344;2024-01-27T02:52:05;2.93;;;0.60;;
12218;SDS011;6172;42.646;23.344;2024-01-27T02:54:32;4.03;;;0.80;;
12218;SDS011;6172;42.646;23.344;2024-01-27T02:56:59;3.13;;;0.70;;
12218;SDS011;6172;42.646;23.344;2024-01-27T02:59:27;4.43;;;0.80;;
12218;SDS011;6172;42.646;23.344;2024-01-27T03:01:54;3.83;;;0.80;;
12218;SDS011;6172;42.646;23.344;2024-01-27T03:04:22;4.47;;;1.20;;
12218;SDS011;6172;42.646;23.344;2024-01-27T03:06:49;6.60;;;2.00;;
12218;SDS011;6172;42.646;23.344;2024-01-27T03:09:16;8.37;;;2.77;;
12218;SDS011;6172;42.646;23.344;2024-01-27T03:11:43;11.17;;;2.67;;
12218;SDS011;6172;42.646;23.344;2024-01-27T03:14:10;10.57;;;2.70;;
12218;SDS011;6172;42.646;23.344;2024-01-27T03:16:39;8.43;;;2.37;;
12218;SDS011;6172;42.646;23.344;2024-01-27T03:19:06;6.37;;;2.70;;
12218;SDS011;6172;42.646;23.344;2024-01-27T03:21:33;3.33;;;1.70;;
12218;SDS011;6172;42.646;23.344;2024-01-27T03:24:01;4.97;;;0.90;;
12218;SDS011;6172;42.646;23.344;2024-01-27T03:26:28;2.27;;;0.80;;
12218;SDS011;6172;42.646;23.344;2024-01-27T03:28:55;2.10;;;0.60;;
12218;SDS011;6172;42.646;23.344;2024-01-27T03:31:23;1.47;;;0.63;;
12218;SDS011;6172;42.646;23.344;2024-01-27T03:33:51;1.03;;;0.30;;
12218;SDS011;6172;42.646;23.344;2024-01-27T03:36:18;2.20;;;0.40;;
12218;SDS011;6172;42.646;23.344;2024-01-27T03:38:45;1.47;;;0.40;;
12218;SDS011;6172;42.646;23.344;2024-01-27T03:41:13;3.07;;;0.60;;
12218;SDS011;6172;42.646;23.344;2024-01-27T03:43:40;4.83;;;0.60;;
12218;SDS011;6172;42.646;23.344;2024-01-27T03:46:07;3.23;;;0.60;;
12218;SDS011;6172;42.646;23.344;2024-01-27T03:48:34;1.17;;;0.30;;
12218;SDS011;6172;42.646;23.344;2024-01-27T03:51:03;3.00;;;0.50;;
12218;SDS011;6172;42.646;23.344;2024-01-27T03:53:30;2.70;;;0.70;;
12218;SDS011;6172;42.646;23.344;2024-01-27T03:55:57;2.00;;;0.80;;
12218;SDS011;6172;42.646;23.344;2024-01-27T03:58:24;2.00;;;0.40;;
12218;SDS011;6172;42.646;23.344;2024-01-27T04:00:52;2.57;;;0.50;;
12218;SDS011;6172;42.646;23.344;2024-01-27T04:03:19;0.70;;;0.47;;
12218;SDS011;6172;42.646;23.344;2024-01-27T04:05:46;2.43;;;0.50;;
12218;SDS011;6172;42.646;23.344;2024-01-27T04:08:15;1.43;;;0.57;;
12218;SDS011;6172;42.646;23.344;2024-01-27T04:10:42;2.40;;;0.50;;
12218;SDS011;6172;42.646;23.344;2024-01-27T04:13:09;2.40;;;0.50;;
12218;SDS011;6172;42.646;23.344;2024-01-27T04:15:36;2.80;;;0.50;;
12218;SDS011;6172;42.646;23.344;2024-01-27T04:18:04;1.30;;;0.50;;
12218;SDS011;6172;42.646;23.344;2024-01-27T04:20:33;1.37;;;0.40;;
12218;SDS011;6172;42.646;23.344;2024-01-27T04:23:00;1.67;;;0.70;;
12218;SDS011;6172;42.646;23.344;2024-01-27T04:25:29;4.53;;;0.60;;
12218;SDS011;6172;42.646;23.344;2024-01-27T04:27:56;1.80;;;0.60;;
12218;SDS011;6172;42.646;23.344;2024-01-27T04:30:23;1.13;;;0.70;;
12218;SDS011;6172;42.646;23.344;2024-01-27T04:32:50;2.30;;;0.53;;
12218;SDS011;6172;42.646;23.344;2024-01-27T04:35:17;1.37;;;0.70;;
12218;SDS011;6172;42.646;23.344;2024-01-27T04:37:45;1.80;;;0.70;;
12218;SDS011;6172;42.646;23.344;2024-01-27T04:40:12;2.93;;;0.87;;
12218;SDS011;6172;42.646;23.344;2024-01-27T04:42:40;2.00;;;0.67;;
12218;SDS011;6172;42.646;23.344;2024-01-27T04:45:08;1.33;;;0.57;;
12218;SDS011;6172;42.646;23.344;2024-01-27T04:47:35;2.53;;;0.97;;
12218;SDS011;6172;42.646;23.344;2024-01-27T04:50:03;1.73;;;0.50;;
12218;SDS011;6172;42.646;23.344;2024-01-27T04:52:32;0.73;;;0.37;;
12218;SDS011;6172;42.646;23.344;2024-01-27T04:55:00;0.80;;;0.47;;
12218;SDS011;6172;42.646;23.344;2024-01-27T04:57:28;0.53;;;0.40;;
12218;SDS011;6172;42.646;23.344;2024-01-27T04:59:56;3.00;;;0.70;;
12218;SDS011;6172;42.646;23.344;2024-01-27T05:02:23;1.40;;;0.40;;
12218;SDS011;6172;42.646;23.344;2024-01-27T05:04:49;0.50;;;0.30;;
12218;SDS011;6172;42.646;23.344;2024-01-27T05:07:16;2.30;;;0.60;;
12218;SDS011;6172;42.646;23.344;2024-01-27T05:09:43;0.90;;;0.50;;
12218;SDS011;6172;42.646;23.344;2024-01-27T05:12:11;0.43;;;0.30;;
12218;SDS011;6172;42.646;23.344;2024-01-27T05:14:37;2.43;;;0.50;;
12218;SDS011;6172;42.646;23.344;2024-01-27T05:17:11;2.70;;;0.40;;
12218;SDS011;6172;42.646;23.344;2024-01-27T05:19:39;1.63;;;0.50;;
12218;SDS011;6172;42.646;23.344;2024-01-27T05:22:06;2.07;;;0.57;;
12218;SDS011;6172;42.646;23.344;2024-01-27T05:24:33;2.53;;;0.40;;
12218;SDS011;6172;42.646;23.344;2024-01-27T05:27:00;3.50;;;0.50;;
12218;SDS011;6172;42.646;23.344;2024-01-27T05:29:27;0.30;;;0.30;;
12218;SDS011;6172;42.646;23.344;2024-01-27T05:31:54;2.60;;;0.50;;
12218;SDS011;6172;42.646;23.344;2024-01-27T05:34:23;1.63;;;0.50;;
12218;SDS011;6172;42.646;23.344;2024-01-27T05:36:50;1.20;;;0.40;;
12218;SDS011;6172;42.646;23.344;2024-01-27T05:39:17;0.93;;;0.60;;
12218;SDS011;6172;42.646;23.344;2024-01-27T05:41:44;1.57;;;0.90;;
12218;SDS011;6172;42.646;23.344;2024-01-27T05:44:11;3.40;;;0.77;;
12218;SDS011;6172;42.646;23.344;2024-01-27T05:46:38;0.90;;;0.50;;
12218;SDS011;6172;42.646;23.344;2024-01-27T05:49:05;1.40;;;0.40;;
12218;SDS011;6172;42.646;23.344;2024-01-27T05:51:33;1.10;;;0.90;;
12218;SDS011;6172;42.646;23.344;2024-01-27T05:54:00;1.70;;;0.50;;
12218;SDS011;6172;42.646;23.344;2024-01-27T05:56:28;1.00;;;0.50;;
12218;SDS011;6172;42.646;23.344;2024-01-27T05:58:55;1.10;;;0.90;;
12218;SDS011;6172;42.646;23.344;2024-01-27T06:01:22;3.40;;;0.80;;
12218;SDS011;6172;42.646;23.344;2024-01-27T06:03:49;2.63;;;0.93;;
12218;SDS011;6172;42.646;23.344;2024-01-27T06:06:16;1.40;;;0.90;;
12218;SDS011;6172;42.646;23.344;2024-01-27T06:08:45;1.80;;;1.00;;
12218;SDS011;6172;42.646;23.344;2024-01-27T06:11:12;3.27;;;1.10;;
12218;SDS011;6172;42.646;23.344;2024-01-27T06:13:39;3.00;;;1.10;;
12218;SDS011;6172;42.646;23.344;2024-01-27T06:16:06;1.73;;;1.20;;
12218;SDS011;6172;42.646;23.344;2024-01-27T06:18:35;1.57;;;0.90;;
12218;SDS011;6172;42.646;23.344;2024-01-27T06:21:03;2.77;;;1.23;;
12218;SDS011;6172;42.646;23.344;2024-01-27T06:23:31;3.27;;;1.27;;
12218;SDS011;6172;42.646;23.344;2024-01-27T06:26:03;2.47;;;1.07;;
12218;SDS011;6172;42.646;23.344;2024-01-27T06:28:31;3.67;;;1.63;;
12218;SDS011;6172;42.646;23.344;2024-01-27T06:30:58;6.87;;;2.20;;
12218;SDS011;6172;42.646;23.344;2024-01-27T06:33:25;9.17;;;2.43;;
12218;SDS011;6172;42.646;23.344;2024-01-27T06:35:52;4.07;;;2.07;;
12218;SDS011;6172;42.646;23.344;2024-01-27T06:38:19;3.03;;;1.73;;
12218;SDS011;6172;42.646;23.344;2024-01-27T06:40:46;1.00;;;0.73;;
12218;SDS011;6172;42.646;23.344;2024-01-27T06:43:14;1.50;;;0.30;;
12218;SDS011;6172;42.646;23.344;2024-01-27T06:45:41;0.73;;;0.30;;
12218;SDS011;6172;42.646;23.344;2024-01-27T06:48:07;0.60;;;0.40;;
12218;SDS011;6172;42.646;23.344;2024-01-27T06:50:34;0.43;;;0.20;;
12218;SDS011;6172;42.646;23.344;2024-01-27T06:53:02;0.80;;;0.20;;
12218;SDS011;6172;42.646;23.344;2024-01-27T06:55:29;0.43;;;0.40;;
12218;SDS011;6172;42.646;23.344;2024-01-27T06:57:56;1.33;;;0.20;;
12218;SDS011;6172;42.646;23.344;2024-01-27T07:00:24;0.43;;;0.20;;
12218;SDS011;6172;42.646;23.344;2024-01-27T07:02:52;1.07;;;0.30;;
12218;SDS011;6172;42.646;23.344;2024-01-27T07:05:21;0.93;;;0.30;;
12218;SDS011;6172;42.646;23.344;2024-01-27T07:07:48;1.63;;;0.40;;
12218;SDS011;6172;42.646;23.344;2024-01-27T07:10:15;1.00;;;0.30;;
12218;SDS011;6172;42.646;23.344;2024-01-27T07:12:42;3.73;;;0.40;;
12218;SDS011;6172;42.646;23.344;2024-01-27T07:15:09;0.93;;;0.40;;
12218;SDS011;6172;42.646;23.344;2024-01-27T07:17:37;0.33;;;0.30;;
12218;SDS011;6172;42.646;23.344;2024-01-27T07:20:05;0.83;;;0.50;;
12218;SDS011;6172;42.646;23.344;2024-01-27T07:22:33;1.07;;;0.40;;
12218;SDS011;6172;42.646;23.344;2024-01-27T07:25:00;1.13;;;0.30;;
12218;SDS011;6172;42.646;23.344;2024-01-27T07:27:28;1.37;;;0.40;;
12218;SDS011;6172;42.646;23.344;2024-01-27T07:29:55;0.53;;;0.30;;
12218;SDS011;6172;42.646;23.344;2024-01-27T07:32:22;1.43;;;0.40;;
12218;SDS011;6172;42.646;23.344;2024-01-27T07:34:52;0.63;;;0.30;;
12218;SDS011;6172;42.646;23.344;2024-01-27T07:37:19;1.07;;;0.60;;
12218;SDS011;6172;42.646;23.344;2024-01-27T07:39:47;0.70;;;0.40;;
12218;SDS011;6172;42.646;23.344;2024-01-27T07:42:14;0.60;;;0.47;;
12218;SDS011;6172;42.646;23.344;2024-01-27T07:44:42;0.83;;;0.70;;
12218;SDS011;6172;42.646;23.344;2024-01-27T07:47:08;1.73;;;0.57;;
12218;SDS011;6172;42.646;23.344;2024-01-27T07:49:35;0.97;;;0.70;;
12218;SDS011;6172;42.646;23.344;2024-01-27T07:52:05;5.10;;;0.90;;
12218;SDS011;6172;42.646;23.344;2024-01-27T07:54:33;0.97;;;0.63;;
12218;SDS011;6172;42.646;23.344;2024-01-27T07:57:04;2.10;;;0.80;;
12218;SDS011;6172;42.646;23.344;2024-01-27T07:59:32;2.97;;;1.50;;
12218;SDS011;6172;42.646;23.344;2024-01-27T08:01:59;2.73;;;1.30;;
12218;SDS011;6172;42.646;23.344;2024-01-27T08:04:26;1.50;;;1.10;;
12218;SDS011;6172;42.646;23.344;2024-01-27T08:06:53;2.60;;;0.90;;
12218;SDS011;6172;42.646;23.344;2024-01-27T08:09:21;2.93;;;1.23;;
12218;SDS011;6172;42.646;23.344;2024-01-27T08:11:50;2.83;;;1.00;;
12218;SDS011;6172;42.646;23.344;2024-01-27T08:14:17;1.67;;;1.00;;
12218;SDS011;6172;42.646;23.344;2024-01-27T08:16:45;1.43;;;0.70;;
12218;SDS011;6172;42.646;23.344;2024-01-27T08:19:12;2.50;;;1.07;;
12218;SDS011;6172;42.646;23.344;2024-01-27T08:21:45;1.57;;;1.00;;
12218;SDS011;6172;42.646;23.344;2024-01-27T08:24:12;2.33;;;1.30;;
12218;SDS011;6172;42.646;23.344;2024-01-27T08:26:41;1.60;;;0.93;;
12218;SDS011;6172;42.646;23.344;2024-01-27T08:29:08;2.20;;;0.97;;
12218;SDS011;6172;42.646;23.344;2024-01-27T08:31:36;2.57;;;0.77;;
12218;SDS011;6172;42.646;23.344;2024-01-27T08:34:03;1.93;;;0.80;;
12218;SDS011;6172;42.646;23.344;2024-01-27T08:36:31;2.30;;;0.70;;
12218;SDS011;6172;42.646;23.344;2024-01-27T08:38:59;2.23;;;1.27;;
12218;SDS011;6172;42.646;23.344;2024-01-27T08:41:26;2.17;;;0.97;;
12218;SDS011;6172;42.646;23.344;2024-01-27T08:43:55;1.43;;;0.50;;
12218;SDS011;6172;42.646;23.344;2024-01-27T08:46:23;1.73;;;0.97;;
12218;SDS011;6172;42.646;23.344;2024-01-27T08:48:52;2.67;;;0.93;;
12218;SDS011;6172;42.646;23.344;2024-01-27T08:51:20;1.50;;;0.93;;
12218;SDS011;6172;42.646;23.344;2024-01-27T08:53:47;1.50;;;0.73;;
12218;SDS011;6172;42.646;23.344;2024-01-27T08:56:19;2.10;;;0.70;;
12218;SDS011;6172;42.646;23.344;2024-01-27T08:58:50;1.00;;;0.73;;
12218;SDS011;6172;42.646;23.344;2024-01-27T09:01:37;1.73;;;0.50;;
12218;SDS011;6172;42.646;23.344;2024-01-27T09:04:04;2.30;;;0.77;;
12218;SDS011;6172;42.646;23.344;2024-01-27T09:06:31;1.43;;;0.43;;
12218;SDS011;6172;42.646;23.344;2024-01-27T09:08:58;1.17;;;0.70;;
12218;SDS011;6172;42.646;23.344;2024-01-27T09:11:27;1.80;;;0.70;;
12218;SDS011;6172;42.646;23.344;2024-01-27T09:13:55;1.57;;;0.47;;
12218;SDS011;6172;42.646;23.344;2024-01-27T09:16:23;0.73;;;0.60;;
12218;SDS011;6172;42.646;23.344;2024-01-27T09:18:52;1.70;;;0.30;;
12218;SDS011;6172;42.646;23.344;2024-01-27T09:21:19;0.60;;;0.60;;
12218;SDS011;6172;42.646;23.344;2024-01-27T09:24:02;1.13;;;0.47;;
12218;SDS011;6172;42.646;23.344;2024-01-27T09:26:29;1.87;;;0.60;;
12218;SDS011;6172;42.646;23.344;2024-01-27T09:28:56;1.07;;;0.50;;
12218;SDS011;6172;42.646;23.344;2024-01-27T09:31:23;0.47;;;0.47;;
12218;SDS011;6172;42.646;23.344;2024-01-27T09:34:03;0.80;;;0.60;;
12218;SDS011;6172;42.646;23.344;2024-01-27T09:36:30;1.00;;;0.60;;
12218;SDS011;6172;42.646;23.344;2024-01-27T09:38:58;1.57;;;0.70;;
12218;SDS011;6172;42.646;23.344;2024-01-27T09:41:25;2.93;;;0.80;;
12218;SDS011;6172;42.646;23.344;2024-01-27T09:43:56;1.43;;;0.50;;
12218;SDS011;6172;42.646;23.344;2024-01-27T09:46:28;1.30;;;0.40;;
12218;SDS011;6172;42.646;23.344;2024-01-27T09:48:59;0.90;;;0.57;;
12218;SDS011;6172;42.646;23.344;2024-01-27T09:54:41;2.43;;;0.70;;
12218;SDS011;6172;42.646;23.344;2024-01-27T09:57:17;1.03;;;0.60;;
12218;SDS011;6172;42.646;23.344;2024-01-27T09:59:46;1.30;;;0.60;;
12218;SDS011;6172;42.646;23.344;2024-01-27T10:02:16;0.40;;;0.40;;
12218;SDS011;6172;42.646;23.344;2024-01-27T10:04:47;0.53;;;0.50;;
12218;SDS011;6172;42.646;23.344;2024-01-27T10:07:18;1.67;;;0.70;;
12218;SDS011;6172;42.646;23.344;2024-01-27T10:09:48;1.20;;;0.67;;
12218;SDS011;6172;42.646;23.344;2024-01-27T10:12:16;0.80;;;0.50;;
12218;SDS011;6172;42.646;23.344;2024-01-27T10:14:46;1.37;;;0.53;;
12218;SDS011;6172;42.646;23.344;2024-01-27T10:17:20;1.13;;;0.50;;
12218;SDS011;6172;42.646;23.344;2024-01-27T10:19:47;1.67;;;0.70;;
12218;SDS011;6172;42.646;23.344;2024-01-27T10:22:36;0.67;;;0.50;;
12218;SDS011;6172;42.646;23.344;2024-01-27T10:25:05;0.40;;;0.40;;
12218;SDS011;6172;42.646;23.344;2024-01-27T10:27:34;0.87;;;0.57;;
12218;SDS011;6172;42.646;23.344;2024-01-27T10:30:01;2.13;;;0.30;;
12218;SDS011;6172;42.646;23.344;2024-01-27T10:32:29;0.90;;;0.50;;
12218;SDS011;6172;42.646;23.344;2024-01-27T10:35:03;2.27;;;1.03;;
12218;SDS011;6172;42.646;23.344;2024-01-27T10:37:32;0.57;;;0.47;;
12218;SDS011;6172;42.646;23.344;2024-01-27T10:40:00;1.67;;;0.80;;
12218;SDS011;6172;42.646;23.344;2024-01-27T10:42:32;1.03;;;0.70;;
12218;SDS011;6172;42.646;23.344;2024-01-27T10:45:03;1.10;;;0.60;;
12218;SDS011;6172;42.646;23.344;2024-01-27T10:47:32;0.90;;;0.47;;
12218;SDS011;6172;42.646;23.344;2024-01-27T10:49:59;0.40;;;0.40;;
12218;SDS011;6172;42.646;23.344;2024-01-27T10:52:28;0.80;;;0.47;;
12218;SDS011;6172;42.646;23.344;2024-01-27T10:54:59;0.60;;;0.40;;
12218;SDS011;6172;42.646;23.344;2024-01-27T10:57:29;3.50;;;0.37;;
12218;SDS011;6172;42.646;23.344;2024-01-27T11:00:00;0.50;;;0.50;;
12218;SDS011;6172;42.646;23.344;2024-01-27T11:02:31;2.37;;;0.50;;
12218;SDS011;6172;42.646;23.344;2024-01-27T11:05:00;1.00;;;0.50;;
12218;SDS011;6172;42.646;23.344;2024-01-27T11:07:29;0.77;;;0.70;;
12218;SDS011;6172;42.646;23.344;2024-01-27T11:10:00;1.93;;;0.80;;
12218;SDS011;6172;42.646;23.344;2024-01-27T11:12:27;1.23;;;0.80;;
12218;SDS011;6172;42.646;23.344;2024-01-27T11:14:55;1.23;;;0.40;;
12218;SDS011;6172;42.646;23.344;2024-01-27T11:17:24;2.10;;;0.70;;
12218;SDS011;6172;42.646;23.344;2024-01-27T11:20:06;2.10;;;0.80;;
12218;SDS011;6172;42.646;23.344;2024-01-27T11:22:49;1.20;;;0.67;;
12218;SDS011;6172;42.646;23.344;2024-01-27T11:25:21;0.67;;;0.67;;
12218;SDS011;6172;42.646;23.344;2024-01-27T11:27:48;1.70;;;0.57;;
12218;SDS011;6172;42.646;23.344;2024-01-27T11:30:27;0.87;;;0.70;;
12218;SDS011;6172;42.646;23.344;2024-01-27T11:32:54;0.57;;;0.50;;
12218;SDS011;6172;42.646;23.344;2024-01-27T11:35:22;0.80;;;0.80;;
12218;SDS011;6172;42.646;23.344;2024-01-27T11:37:52;1.30;;;0.77;;
12218;SDS011;6172;42.646;23.344;2024-01-27T11:40:21;1.13;;;0.80;;
12218;SDS011;6172;42.646;23.344;2024-01-27T11:42:53;1.37;;;0.73;;
12218;SDS011;6172;42.646;23.344;2024-01-27T11:45:21;1.40;;;0.90;;
12218;SDS011;6172;42.646;23.344;2024-01-27T11:47:48;1.57;;;0.73;;
12218;SDS011;6172;42.646;23.344;2024-01-27T11:50:16;2.13;;;1.00;;
12218;SDS011;6172;42.646;23.344;2024-01-27T11:52:44;1.57;;;1.00;;
12218;SDS011;6172;42.646;23.344;2024-01-27T11:55:11;0.90;;;0.70;;
12218;SDS011;6172;42.646;23.344;2024-01-27T11:57:42;2.57;;;1.20;;
12218;SDS011;6172;42.646;23.344;2024-01-27T12:00:09;1.30;;;1.10;;
12218;SDS011;6172;42.646;23.344;2024-01-27T12:02:37;1.30;;;1.20;;
12218;SDS011;6172;42.646;23.344;2024-01-27T12:05:04;4.00;;;1.30;;
12218;SDS011;6172;42.646;23.344;2024-01-27T12:07:33;1.43;;;1.20;;
12218;SDS011;6172;42.646;23.344;2024-01-27T12:10:06;1.63;;;1.30;;
12218;SDS011;6172;42.646;23.344;2024-01-27T12:12:35;1.40;;;1.30;;
12218;SDS011;6172;42.646;23.344;2024-01-27T12:15:04;1.43;;;1.20;;
12218;SDS011;6172;42.646;23.344;2024-01-27T12:17:32;1.20;;;1.03;;
12218;SDS011;6172;42.646;23.344;2024-01-27T12:19:59;1.13;;;1.00;;
12218;SDS011;6172;42.646;23.344;2024-01-27T12:22:27;3.27;;;1.30;;
12218;SDS011;6172;42.646;23.344;2024-01-27T12:24:59;2.57;;;1.13;;
12218;SDS011;6172;42.646;23.344;2024-01-27T12:27:35;1.33;;;1.00;;
12218;SDS011;6172;42.646;23.344;2024-01-27T12:30:05;0.70;;;0.70;;
12218;SDS011;6172;42.646;23.344;2024-01-27T12:32:33;3.13;;;0.73;;
12218;SDS011;6172;42.646;23.344;2024-01-27T12:35:04;1.67;;;0.90;;
12218;SDS011;6172;42.646;23.344;2024-01-27T12:37:31;2.10;;;0.73;;
12218;SDS011;6172;42.646;23.344;2024-01-27T12:40:00;2.77;;;0.97;;
12218;SDS011;6172;42.646;23.344;2024-01-27T12:42:28;0.97;;;0.80;;
12218;SDS011;6172;42.646;23.344;2024-01-27T12:44:55;1.37;;;0.90;;
12218;SDS011;6172;42.646;23.344;2024-01-27T12:47:23;1.40;;;0.90;;
12218;SDS011;6172;42.646;23.344;2024-01-27T12:49:50;3.20;;;0.80;;
12218;SDS011;6172;42.646;23.344;2024-01-27T12:52:17;0.60;;;0.60;;
12218;SDS011;6172;42.646;23.344;2024-01-27T12:54:49;1.27;;;0.60;;
12218;SDS011;6172;42.646;23.344;2024-01-27T12:57:16;2.23;;;1.10;;
12218;SDS011;6172;42.646;23.344;2024-01-27T12:59:44;2.27;;;1.00;;
12218;SDS011;6172;42.646;23.344;2024-01-27T13:02:11;1.23;;;0.90;;
12218;SDS011;6172;42.646;23.344;2024-01-27T13:04:42;1.47;;;0.70;;
12218;SDS011;6172;42.646;23.344;2024-01-27T13:07:09;0.50;;;0.50;;
12218;SDS011;6172;42.646;23.344;2024-01-27T13:09:36;1.17;;;0.70;;
12218;SDS011;6172;42.646;23.344;2024-01-27T13:12:04;1.47;;;0.63;;
12218;SDS011;6172;42.646;23.344;2024-01-27T13:14:34;0.70;;;0.70;;
12218;SDS011;6172;42.646;23.344;2024-01-27T13:17:01;0.70;;;0.63;;
12218;SDS011;6172;42.646;23.344;2024-01-27T13:19:28;1.60;;;0.57;;
12218;SDS011;6172;42.646;23.344;2024-01-27T13:21:58;5.43;;;0.70;;
12218;SDS011;6172;42.646;23.344;2024-01-27T13:24:27;0.70;;;0.67;;
12218;SDS011;6172;42.646;23.344;2024-01-27T13:26:54;0.87;;;0.60;;
12218;SDS011;6172;42.646;23.344;2024-01-27T13:29:22;1.90;;;0.77;;
12218;SDS011;6172;42.646;23.344;2024-01-27T13:31:50;0.70;;;0.70;;
12218;SDS011;6172;42.646;23.344;2024-01-27T13:34:18;0.87;;;0.60;;
12218;SDS011;6172;42.646;23.344;2024-01-27T13:36:45;2.37;;;0.63;;
12218;SDS011;6172;42.646;23.344;2024-01-27T13:39:14;2.73;;;0.87;;
12218;SDS011;6172;42.646;23.344;2024-01-27T13:41:41;1.27;;;0.50;;
12218;SDS011;6172;42.646;23.344;2024-01-27T13:44:08;0.90;;;0.60;;
12218;SDS011;6172;42.646;23.344;2024-01-27T13:46:35;1.97;;;0.80;;
12218;SDS011;6172;42.646;23.344;2024-01-27T13:49:02;2.20;;;0.50;;
12218;SDS011;6172;42.646;23.344;2024-01-27T13:51:30;2.37;;;0.50;;
12218;SDS011;6172;42.646;23.344;2024-01-27T13:53:58;0.70;;;0.50;;
12218;SDS011;6172;42.646;23.344;2024-01-27T13:56:27;2.37;;;0.50;;
12218;SDS011;6172;42.646;23.344;2024-01-27T13:59:01;1.00;;;0.60;;
12218;SDS011;6172;42.646;23.344;2024-01-27T14:01:30;1.77;;;0.70;;
12218;SDS011;6172;42.646;23.344;2024-01-27T14:04:10;1.40;;;0.63;;
12218;SDS011;6172;42.646;23.344;2024-01-27T14:06:37;2.30;;;0.50;;
12218;SDS011;6172;42.646;23.344;2024-01-27T14:09:05;1.60;;;0.67;;
12218;SDS011;6172;42.646;23.344;2024-01-27T14:11:33;4.93;;;0.77;;
12218;SDS011;6172;42.646;23.344;2024-01-27T14:14:02;1.03;;;0.60;;
12218;SDS011;6172;42.646;23.344;2024-01-27T14:16:30;0.70;;;0.50;;
12218;SDS011;6172;42.646;23.344;2024-01-27T14:18:57;2.47;;;0.60;;
12218;SDS011;6172;42.646;23.344;2024-01-27T14:21:24;3.07;;;0.80;;
12218;SDS011;6172;42.646;23.344;2024-01-27T14:23:52;2.17;;;0.50;;
12218;SDS011;6172;42.646;23.344;2024-01-27T14:26:26;1.47;;;0.70;;
12218;SDS011;6172;42.646;23.344;2024-01-27T14:28:55;1.53;;;0.60;;
12218;SDS011;6172;42.646;23.344;2024-01-27T14:31:22;1.20;;;0.63;;
12218;SDS011;6172;42.646;23.344;2024-01-27T14:33:50;2.67;;;0.50;;
12218;SDS011;6172;42.646;23.344;2024-01-27T14:36:17;2.30;;;0.50;;
12218;SDS011;6172;42.646;23.344;2024-01-27T14:38:45;2.97;;;0.50;;
12218;SDS011;6172;42.646;23.344;2024-01-27T14:41:15;1.63;;;0.57;;
12218;SDS011;6172;42.646;23.344;2024-01-27T14:43:42;1.00;;;0.60;;
12218;SDS011;6172;42.646;23.344;2024-01-27T14:46:10;1.73;;;0.50;;
12218;SDS011;6172;42.646;23.344;2024-01-27T14:48:40;1.60;;;0.40;;
12218;SDS011;6172;42.646;23.344;2024-01-27T14:51:08;0.70;;;0.30;;
12218;SDS011;6172;42.646;23.344;2024-01-27T14:53:35;1.80;;;0.50;;
12218;SDS011;6172;42.646;23.344;2024-01-27T14:56:02;3.93;;;0.50;;
12218;SDS011;6172;42.646;23.344;2024-01-27T14:58:30;0.63;;;0.60;;